createdAt,value
2018-01-21T00:00:39.918Z,2.85
2018-01-21T00:01:39.835Z,2.92
2018-01-21T00:02:39.765Z,2.92
2018-01-21T00:03:39.662Z,2.83
2018-01-21T00:04:39.576Z,2.86
2018-01-21T00:05:39.516Z,2.85
2018-01-21T00:06:39.405Z,2.90
2018-01-21T00:07:39.319Z,2.89
2018-01-21T00:08:39.232Z,2.90
2018-01-21T00:09:39.148Z,2.80
2018-01-21T00:10:39.065Z,2.82
2018-01-21T00:11:38.992Z,2.89
2018-01-21T00:12:38.893Z,2.95
2018-01-21T00:13:38.812Z,2.90
2018-01-21T00:14:38.720Z,2.92
2018-01-21T00:15:38.635Z,2.85
2018-01-21T00:16:38.549Z,2.93
2018-01-21T00:17:38.469Z,2.98
2018-01-21T00:18:38.379Z,2.97
2018-01-21T00:19:38.294Z,2.90
2018-01-21T00:20:38.212Z,2.93
2018-01-21T00:21:38.120Z,2.95
2018-01-21T00:22:38.071Z,2.98
2018-01-21T00:23:37.951Z,2.97
2018-01-21T00:24:37.865Z,3.07
2018-01-21T00:25:37.778Z,3.04
2018-01-21T00:26:37.693Z,3.04
2018-01-21T00:27:37.610Z,3.04
2018-01-21T00:28:37.522Z,2.97
2018-01-21T00:29:37.465Z,3.03
2018-01-21T00:30:37.351Z,2.98
2018-01-21T00:31:37.267Z,3.01
2018-01-21T00:32:37.189Z,3.10
2018-01-21T00:33:37.095Z,3.08
2018-01-21T00:34:37.031Z,2.97
2018-01-21T00:35:36.926Z,3.08
2018-01-21T00:36:36.894Z,3.07
2018-01-21T00:37:36.755Z,3.11
2018-01-21T00:38:36.704Z,3.08
2018-01-21T00:39:36.588Z,3.11
2018-01-21T00:40:36.496Z,3.10
2018-01-21T00:41:36.430Z,3.13
2018-01-21T00:42:36.324Z,3.07
2018-01-21T00:43:36.239Z,3.05
2018-01-21T00:44:36.169Z,3.03
2018-01-21T00:45:36.069Z,3.00
2018-01-21T00:46:35.983Z,2.98
2018-01-21T00:47:35.898Z,3.01
2018-01-21T00:48:35.811Z,2.98
2018-01-21T00:49:35.731Z,3.11
2018-01-21T00:50:35.642Z,3.03
2018-01-21T00:51:35.556Z,3.11
2018-01-21T00:52:35.473Z,3.05
2018-01-21T00:53:35.385Z,3.08
2018-01-21T00:54:35.303Z,3.03
2018-01-21T00:55:35.216Z,3.00
2018-01-21T00:56:35.129Z,3.08
2018-01-21T00:57:35.046Z,3.07
2018-01-21T00:58:34.981Z,3.04
2018-01-21T00:59:34.873Z,3.04
2018-01-21T01:00:34.787Z,3.03
2018-01-21T01:01:34.710Z,3.04
2018-01-21T01:02:34.620Z,3.03
2018-01-21T01:03:34.539Z,3.03
2018-01-21T01:04:34.446Z,3.05
2018-01-21T01:05:34.361Z,3.05
2018-01-21T01:06:34.274Z,3.08
2018-01-21T01:07:34.191Z,3.00
2018-01-21T01:08:34.102Z,3.00
2018-01-21T01:09:34.019Z,3.01
2018-01-21T01:10:33.934Z,2.98
2018-01-21T01:11:33.847Z,2.97
2018-01-21T01:12:33.764Z,3.04
2018-01-21T01:13:33.680Z,3.03
2018-01-21T01:14:33.611Z,3.01
2018-01-21T01:15:33.509Z,2.97
2018-01-21T01:16:33.420Z,3.05
2018-01-21T01:17:33.334Z,2.98
2018-01-21T01:18:33.253Z,3.01
2018-01-21T01:19:33.164Z,3.11
2018-01-21T01:20:33.096Z,3.16
2018-01-21T01:21:32.995Z,3.08
2018-01-21T01:22:32.915Z,3.05
2018-01-21T01:23:32.824Z,3.13
2018-01-21T01:24:32.739Z,3.16
2018-01-21T01:25:32.672Z,3.08
2018-01-21T01:26:32.566Z,3.10
2018-01-21T01:27:32.483Z,3.08
2018-01-21T01:28:32.397Z,3.11
2018-01-21T01:29:32.315Z,3.10
2018-01-21T01:30:32.226Z,3.07
2018-01-21T01:31:32.152Z,3.11
2018-01-21T01:32:32.057Z,3.10
2018-01-21T01:33:31.969Z,3.07
2018-01-21T01:34:31.883Z,3.11
2018-01-21T01:35:31.798Z,3.10
2018-01-21T01:36:31.712Z,3.07
2018-01-21T01:37:31.626Z,3.14
2018-01-21T01:38:31.544Z,3.13
2018-01-21T01:39:31.459Z,3.11
2018-01-21T01:40:31.374Z,3.11
2018-01-21T01:41:31.287Z,3.08
2018-01-21T01:42:31.201Z,3.11
2018-01-21T01:43:31.120Z,3.16
2018-01-21T01:44:31.030Z,3.11
2018-01-21T01:45:30.944Z,3.18
2018-01-21T01:46:30.860Z,3.14
2018-01-21T01:47:30.775Z,3.22
2018-01-21T01:48:30.688Z,3.18
2018-01-21T01:49:30.604Z,3.19
2018-01-21T01:50:30.521Z,3.11
2018-01-21T01:51:30.434Z,3.10
2018-01-21T01:52:30.347Z,3.08
2018-01-21T01:53:30.268Z,3.04
2018-01-21T01:54:30.178Z,3.01
2018-01-21T01:55:30.093Z,2.97
2018-01-21T01:56:30.008Z,2.97
2018-01-21T01:57:29.948Z,2.93
2018-01-21T01:58:29.836Z,2.92
2018-01-21T01:59:29.752Z,2.89
2018-01-21T02:00:29.668Z,2.86
2018-01-21T02:01:29.596Z,2.89
2018-01-21T02:02:29.495Z,2.87
2018-01-21T02:03:29.409Z,2.97
2018-01-21T02:04:29.324Z,3.00
2018-01-21T02:05:29.240Z,2.89
2018-01-21T02:06:29.154Z,2.89
2018-01-21T02:07:29.076Z,2.93
2018-01-21T02:08:28.980Z,2.92
2018-01-21T02:09:28.896Z,2.92
2018-01-21T02:10:28.811Z,2.98
2018-01-21T02:11:28.725Z,2.93
2018-01-21T02:12:28.645Z,3.04
2018-01-21T02:13:28.557Z,3.04
2018-01-21T02:14:28.469Z,3.00
2018-01-21T02:15:28.386Z,3.03
2018-01-21T02:16:28.298Z,3.05
2018-01-21T02:17:28.212Z,3.14
2018-01-21T02:18:28.128Z,3.08
2018-01-21T02:19:28.050Z,3.11
2018-01-21T02:20:27.958Z,3.08
2018-01-21T02:21:27.875Z,3.10
2018-01-21T02:22:27.830Z,3.14
2018-01-21T02:23:27.703Z,3.11
2018-01-21T02:24:27.616Z,3.11
2018-01-21T02:25:27.531Z,3.19
2018-01-21T02:26:27.446Z,3.11
2018-01-21T02:27:27.362Z,3.18
2018-01-21T02:28:27.277Z,3.04
2018-01-21T02:29:27.191Z,3.08
2018-01-21T02:30:27.110Z,3.13
2018-01-21T02:31:27.022Z,3.04
2018-01-21T02:32:26.932Z,3.13
2018-01-21T02:33:26.849Z,3.10
2018-01-21T02:34:26.764Z,3.10
2018-01-21T02:35:26.678Z,3.10
2018-01-21T02:36:26.594Z,3.08
2018-01-21T02:37:26.515Z,3.16
2018-01-21T02:38:26.423Z,3.14
2018-01-21T02:39:26.340Z,3.07
2018-01-21T02:40:26.252Z,3.14
2018-01-21T02:41:26.172Z,3.14
2018-01-21T02:42:26.081Z,3.08
2018-01-21T02:43:25.996Z,3.04
2018-01-21T02:44:25.911Z,3.13
2018-01-21T02:45:25.823Z,3.07
2018-01-21T02:46:25.740Z,3.10
2018-01-21T02:47:25.667Z,3.01
2018-01-21T02:48:25.568Z,3.00
2018-01-21T02:49:25.484Z,3.01
2018-01-21T02:50:25.399Z,3.03
2018-01-21T02:51:25.312Z,3.05
2018-01-21T02:52:25.227Z,3.05
2018-01-21T02:53:25.141Z,3.04
2018-01-21T02:54:25.058Z,3.00
2018-01-21T02:55:24.983Z,3.05
2018-01-21T02:56:24.885Z,3.10
2018-01-21T02:57:24.801Z,3.01
2018-01-21T02:58:24.717Z,3.14
2018-01-21T02:59:24.630Z,3.13
2018-01-21T03:00:24.544Z,3.16
2018-01-21T03:01:24.459Z,3.11
2018-01-21T03:02:24.373Z,3.11
2018-01-21T03:03:24.295Z,3.08
2018-01-21T03:04:24.204Z,3.16
2018-01-21T03:05:24.117Z,3.10
2018-01-21T03:06:24.032Z,3.05
2018-01-21T03:07:23.946Z,3.13
2018-01-21T03:08:23.860Z,3.03
2018-01-21T03:09:23.777Z,3.00
2018-01-21T03:10:23.691Z,3.00
2018-01-21T03:11:23.606Z,3.05
2018-01-21T03:12:23.520Z,3.00
2018-01-21T03:13:23.437Z,3.04
2018-01-21T03:14:23.350Z,3.03
2018-01-21T03:15:23.262Z,2.92
2018-01-21T03:16:23.178Z,2.89
2018-01-21T03:17:23.092Z,3.03
2018-01-21T03:18:23.008Z,2.98
2018-01-21T03:19:22.931Z,2.95
2018-01-21T03:20:22.836Z,2.93
2018-01-21T03:21:22.758Z,3.03
2018-01-21T03:22:22.665Z,3.03
2018-01-21T03:23:22.581Z,3.05
2018-01-21T03:24:22.494Z,3.00
2018-01-21T03:25:22.410Z,3.03
2018-01-21T03:26:22.323Z,3.01
2018-01-21T03:27:22.239Z,3.00
2018-01-21T03:28:22.153Z,3.05
2018-01-21T03:29:22.067Z,3.00
2018-01-21T03:30:21.989Z,3.05
2018-01-21T03:31:21.899Z,3.10
2018-01-21T03:32:21.815Z,3.10
2018-01-21T03:33:21.727Z,3.14
2018-01-21T03:34:21.638Z,3.08
2018-01-21T03:35:21.555Z,3.07
2018-01-21T03:36:21.471Z,3.11
2018-01-21T03:37:21.384Z,3.11
2018-01-21T03:38:21.301Z,3.04
2018-01-21T03:39:21.213Z,3.05
2018-01-21T03:40:21.127Z,3.18
2018-01-21T03:41:21.044Z,3.19
2018-01-21T03:42:20.957Z,3.13
2018-01-21T03:43:20.874Z,3.16
2018-01-21T03:44:20.786Z,3.18
2018-01-21T03:45:20.706Z,3.18
2018-01-21T03:46:20.618Z,3.14
2018-01-21T03:47:20.530Z,3.18
2018-01-21T03:48:20.446Z,3.19
2018-01-21T03:49:20.360Z,3.14
2018-01-21T03:50:20.274Z,3.14
2018-01-21T03:51:20.194Z,3.19
2018-01-21T03:52:20.104Z,3.16
2018-01-21T03:53:20.020Z,3.22
2018-01-21T03:54:19.932Z,3.22
2018-01-21T03:55:19.849Z,3.10
2018-01-21T03:56:19.762Z,3.23
2018-01-21T03:57:19.690Z,3.22
2018-01-21T03:58:19.595Z,3.21
2018-01-21T03:59:19.510Z,3.11
2018-01-21T04:00:19.428Z,3.18
2018-01-21T04:01:19.341Z,3.18
2018-01-21T04:02:19.269Z,3.22
2018-01-21T04:03:19.186Z,3.14
2018-01-21T04:04:19.081Z,3.26
2018-01-21T04:05:18.993Z,3.14
2018-01-21T04:06:18.911Z,3.21
2018-01-21T04:07:18.826Z,3.11
2018-01-21T04:08:18.741Z,3.18
2018-01-21T04:09:18.653Z,3.21
2018-01-21T04:10:18.570Z,3.22
2018-01-21T04:11:18.487Z,3.23
2018-01-21T04:12:18.398Z,3.22
2018-01-21T04:13:18.312Z,3.19
2018-01-21T04:14:18.225Z,3.19
2018-01-21T04:15:18.142Z,3.14
2018-01-21T04:16:18.063Z,3.22
2018-01-21T04:17:17.973Z,3.13
2018-01-21T04:18:17.892Z,3.22
2018-01-21T04:19:17.803Z,3.19
2018-01-21T04:20:17.717Z,3.16
2018-01-21T04:21:17.630Z,3.19
2018-01-21T04:22:17.557Z,3.14
2018-01-21T04:23:17.460Z,3.18
2018-01-21T04:24:17.376Z,3.13
2018-01-21T04:25:17.292Z,3.11
2018-01-21T04:26:17.206Z,3.08
2018-01-21T04:27:17.121Z,3.10
2018-01-21T04:28:17.033Z,3.01
2018-01-21T04:29:16.951Z,3.05
2018-01-21T04:30:16.899Z,2.89
2018-01-21T04:31:16.787Z,2.97
2018-01-21T04:32:16.694Z,2.93
2018-01-21T04:33:16.609Z,2.85
2018-01-21T04:34:16.522Z,2.85
2018-01-21T04:35:16.439Z,2.80
2018-01-21T04:36:16.357Z,2.83
2018-01-21T04:37:16.265Z,2.80
2018-01-21T04:38:16.181Z,2.77
2018-01-21T04:39:16.096Z,2.82
2018-01-21T04:40:16.010Z,2.83
2018-01-21T04:41:15.925Z,2.80
2018-01-21T04:42:15.840Z,2.83
2018-01-21T04:43:15.756Z,2.79
2018-01-21T04:44:15.668Z,2.89
2018-01-21T04:45:15.582Z,2.87
2018-01-21T04:46:15.498Z,2.92
2018-01-21T04:47:15.413Z,2.97
2018-01-21T04:48:15.331Z,2.87
2018-01-21T04:49:15.242Z,2.77
2018-01-21T04:50:15.161Z,2.85
2018-01-21T04:51:15.069Z,2.92
2018-01-21T04:52:15.001Z,2.89
2018-01-21T04:53:14.897Z,2.97
2018-01-21T04:54:14.814Z,2.97
2018-01-21T04:55:14.728Z,2.95
2018-01-21T04:56:14.643Z,2.89
2018-01-21T04:57:14.556Z,3.01
2018-01-21T04:58:14.474Z,2.93
2018-01-21T04:59:14.386Z,2.95
2018-01-21T05:00:14.306Z,3.01
2018-01-21T05:01:14.241Z,2.89
2018-01-21T05:02:14.130Z,2.92
2018-01-21T05:03:14.044Z,2.93
2018-01-21T05:04:13.956Z,2.90
2018-01-21T05:05:13.873Z,2.95
2018-01-21T05:06:13.786Z,2.92
2018-01-21T05:07:13.708Z,2.89
2018-01-21T05:08:13.617Z,2.87
2018-01-21T05:09:13.538Z,2.89
2018-01-21T05:10:13.452Z,2.86
2018-01-21T05:11:13.360Z,2.92
2018-01-21T05:12:13.275Z,2.93
2018-01-21T05:13:13.189Z,2.82
2018-01-21T05:14:13.103Z,2.90
2018-01-21T05:15:13.021Z,2.86
2018-01-21T05:16:12.937Z,2.86
2018-01-21T05:17:12.847Z,2.85
2018-01-21T05:18:12.762Z,2.85
2018-01-21T05:19:12.675Z,2.83
2018-01-21T05:20:12.592Z,2.83
2018-01-21T05:21:12.503Z,2.77
2018-01-21T05:22:12.418Z,2.74
2018-01-21T05:23:12.333Z,2.72
2018-01-21T05:24:12.246Z,2.74
2018-01-21T05:25:12.159Z,2.75
2018-01-21T05:26:12.075Z,2.74
2018-01-21T05:27:11.989Z,2.79
2018-01-21T05:28:11.902Z,2.75
2018-01-21T05:29:11.817Z,2.75
2018-01-21T05:30:11.730Z,2.75
2018-01-21T05:31:11.650Z,2.62
2018-01-21T05:32:11.559Z,2.69
2018-01-21T05:33:11.474Z,2.72
2018-01-21T05:34:11.388Z,2.62
2018-01-21T05:35:11.309Z,2.74
2018-01-21T05:36:11.215Z,2.64
2018-01-21T05:37:11.128Z,2.64
2018-01-21T05:38:11.051Z,2.56
2018-01-21T05:39:10.957Z,2.67
2018-01-21T05:40:10.871Z,2.62
2018-01-21T05:41:10.787Z,2.57
2018-01-21T05:42:10.704Z,2.62
2018-01-21T05:43:10.614Z,2.62
2018-01-21T05:44:10.528Z,2.62
2018-01-21T05:45:10.442Z,2.62
2018-01-21T05:46:10.372Z,2.62
2018-01-21T05:47:10.273Z,2.56
2018-01-21T05:48:10.184Z,2.57
2018-01-21T05:49:10.099Z,2.71
2018-01-21T05:50:10.013Z,2.68
2018-01-21T05:51:09.927Z,2.60
2018-01-21T05:52:09.840Z,2.60
2018-01-21T05:53:09.753Z,2.61
2018-01-21T05:54:09.670Z,2.62
2018-01-21T05:55:09.580Z,2.68
2018-01-21T05:56:09.497Z,2.57
2018-01-21T05:57:09.409Z,2.72
2018-01-21T05:58:09.326Z,2.65
2018-01-21T05:59:09.238Z,2.68
2018-01-21T06:00:09.151Z,2.69
2018-01-21T06:01:09.065Z,2.56
2018-01-21T06:02:08.979Z,2.57
2018-01-21T06:03:08.894Z,2.57
2018-01-21T06:04:08.807Z,2.56
2018-01-21T06:05:08.723Z,2.56
2018-01-21T06:06:08.640Z,2.60
2018-01-21T06:07:08.550Z,2.61
2018-01-21T06:08:08.463Z,2.72
2018-01-21T06:09:08.377Z,2.54
2018-01-21T06:10:08.293Z,2.60
2018-01-21T06:11:08.204Z,2.61
2018-01-21T06:12:08.159Z,2.64
2018-01-21T06:13:08.033Z,2.74
2018-01-21T06:14:07.946Z,2.75
2018-01-21T06:15:07.867Z,2.67
2018-01-21T06:16:07.772Z,2.69
2018-01-21T06:17:07.688Z,2.69
2018-01-21T06:18:07.602Z,2.74
2018-01-21T06:19:07.517Z,2.62
2018-01-21T06:20:07.433Z,2.77
2018-01-21T06:21:07.344Z,2.72
2018-01-21T06:22:07.258Z,2.79
2018-01-21T06:23:07.171Z,2.77
2018-01-21T06:24:07.085Z,2.74
2018-01-21T06:25:07.000Z,2.79
2018-01-21T06:26:06.916Z,2.79
2018-01-21T06:27:06.866Z,2.83
2018-01-21T06:28:06.741Z,2.80
2018-01-21T06:29:06.656Z,2.82
2018-01-21T06:30:06.570Z,2.83
2018-01-21T06:31:06.483Z,2.80
2018-01-21T06:32:06.396Z,2.82
2018-01-21T06:33:06.313Z,2.79
2018-01-21T06:34:06.240Z,2.83
2018-01-21T06:35:06.141Z,2.77
2018-01-21T06:36:06.054Z,2.80
2018-01-21T06:37:05.968Z,2.79
2018-01-21T06:38:05.904Z,2.77
2018-01-21T06:39:05.796Z,2.77
2018-01-21T06:40:05.719Z,2.75
2018-01-21T06:41:05.626Z,2.72
2018-01-21T06:42:05.539Z,2.82
2018-01-21T06:43:05.452Z,2.75
2018-01-21T06:44:05.366Z,2.77
2018-01-21T06:45:05.280Z,2.71
2018-01-21T06:46:05.194Z,2.74
2018-01-21T06:47:05.111Z,2.69
2018-01-21T06:48:05.025Z,2.74
2018-01-21T06:49:04.944Z,2.75
2018-01-21T06:50:04.852Z,2.79
2018-01-21T06:51:04.765Z,2.77
2018-01-21T06:52:04.680Z,2.83
2018-01-21T06:53:04.592Z,2.79
2018-01-21T06:54:04.506Z,2.80
2018-01-21T06:55:04.421Z,2.83
2018-01-21T06:56:04.334Z,2.85
2018-01-21T06:57:04.248Z,2.79
2018-01-21T06:58:04.163Z,2.83
2018-01-21T06:59:04.076Z,2.89
2018-01-21T07:00:04.018Z,2.79
2018-01-21T07:01:03.908Z,2.80
2018-01-21T07:02:03.819Z,2.80
2018-01-21T07:03:03.732Z,2.83
2018-01-21T07:04:03.648Z,2.77
2018-01-21T07:05:03.562Z,2.86
2018-01-21T07:06:03.475Z,2.86
2018-01-21T07:07:03.402Z,2.89
2018-01-21T07:08:03.302Z,2.93
2018-01-21T07:09:03.218Z,2.97
2018-01-21T07:10:03.132Z,2.87
2018-01-21T07:11:03.047Z,2.93
2018-01-21T07:12:02.959Z,2.86
2018-01-21T07:13:02.871Z,2.87
2018-01-21T07:14:02.788Z,2.89
2018-01-21T07:15:02.703Z,2.85
2018-01-21T07:16:02.622Z,2.95
2018-01-21T07:17:02.533Z,2.97
2018-01-21T07:18:02.444Z,2.95
2018-01-21T07:19:02.358Z,2.93
2018-01-21T07:20:02.273Z,2.82
2018-01-21T07:21:02.185Z,2.89
2018-01-21T07:22:02.109Z,2.89
2018-01-21T07:23:02.015Z,2.92
2018-01-21T07:24:01.928Z,2.90
2018-01-21T07:25:01.842Z,2.83
2018-01-21T07:26:01.755Z,2.90
2018-01-21T07:27:01.669Z,2.90
2018-01-21T07:28:01.583Z,2.93
2018-01-21T07:29:01.498Z,2.86
2018-01-21T07:30:01.412Z,2.89
2018-01-21T07:31:01.327Z,2.93
2018-01-21T07:32:01.240Z,2.89
2018-01-21T07:33:01.155Z,2.85
2018-01-21T07:34:01.069Z,2.87
2018-01-21T07:35:00.988Z,2.92
2018-01-21T07:36:00.895Z,2.92
2018-01-21T07:37:00.814Z,2.92
2018-01-21T07:38:00.724Z,2.86
2018-01-21T07:39:00.638Z,2.93
2018-01-21T07:40:00.550Z,2.92
2018-01-21T07:41:00.465Z,2.85
2018-01-21T07:42:00.381Z,2.82
2018-01-21T07:43:00.298Z,2.82
2018-01-21T07:44:00.233Z,2.80
2018-01-21T07:45:00.126Z,2.74
2018-01-21T07:46:00.035Z,2.80
2018-01-21T07:46:59.949Z,2.90
2018-01-21T07:47:59.887Z,2.80
2018-01-21T07:48:59.777Z,2.82
2018-01-21T07:49:59.690Z,2.79
2018-01-21T07:50:59.608Z,2.83
2018-01-21T07:51:59.518Z,2.86
2018-01-21T07:52:59.443Z,2.79
2018-01-21T07:53:59.347Z,2.79
2018-01-21T07:54:59.316Z,2.83
2018-01-21T07:55:59.175Z,2.82
2018-01-21T07:56:59.112Z,2.85
2018-01-21T07:57:59.002Z,2.77
2018-01-21T07:58:58.919Z,2.86
2018-01-21T07:59:58.832Z,2.83
2018-01-21T08:00:58.744Z,2.86
2018-01-21T08:01:58.659Z,2.89
2018-01-21T08:02:58.573Z,2.80
2018-01-21T08:03:58.491Z,2.85
2018-01-21T08:04:58.420Z,2.85
2018-01-21T08:05:58.357Z,2.86
2018-01-21T08:06:58.230Z,2.89
2018-01-21T08:07:58.143Z,2.79
2018-01-21T08:08:58.056Z,2.86
2018-01-21T08:09:57.972Z,2.85
2018-01-21T08:10:57.887Z,2.80
2018-01-21T08:11:57.796Z,2.80
2018-01-21T08:12:57.712Z,2.93
2018-01-21T08:13:57.628Z,2.85
2018-01-21T08:14:57.540Z,2.86
2018-01-21T08:15:57.467Z,2.83
2018-01-21T08:16:57.368Z,2.87
2018-01-21T08:17:57.287Z,2.85
2018-01-21T08:18:57.196Z,2.89
2018-01-21T08:19:57.112Z,2.89
2018-01-21T08:20:57.026Z,2.92
2018-01-21T08:21:56.941Z,2.92
2018-01-21T08:22:56.861Z,2.86
2018-01-21T08:23:56.768Z,2.85
2018-01-21T08:24:56.681Z,2.86
2018-01-21T08:25:56.594Z,2.97
2018-01-21T08:26:56.509Z,2.92
2018-01-21T08:27:56.423Z,2.89
2018-01-21T08:28:56.339Z,2.92
2018-01-21T08:29:56.285Z,2.89
2018-01-21T08:30:56.167Z,2.89
2018-01-21T08:31:56.078Z,2.89
2018-01-21T08:32:55.993Z,2.87
2018-01-21T08:34:11.355Z,2.97
2018-01-21T08:34:55.827Z,2.97
2018-01-21T08:35:55.732Z,2.93
2018-01-21T08:36:55.732Z,2.95
2018-01-21T08:37:55.562Z,2.86
2018-01-21T08:38:55.477Z,2.90
2018-01-21T08:39:55.389Z,2.92
2018-01-21T08:40:55.306Z,2.98
2018-01-21T08:41:55.217Z,2.90
2018-01-21T08:42:55.161Z,2.90
2018-01-21T08:43:55.108Z,2.93
2018-01-21T08:44:54.960Z,2.87
2018-01-21T08:45:54.873Z,2.98
2018-01-21T08:46:55.435Z,2.92
2018-01-21T08:47:54.722Z,2.92
2018-01-21T08:48:54.619Z,2.93
2018-01-21T08:49:55.163Z,2.95
2018-01-21T08:50:54.448Z,2.95
2018-01-21T08:51:54.390Z,2.98
2018-01-21T08:52:54.273Z,2.95
2018-01-21T08:53:54.189Z,2.95
2018-01-21T08:54:54.100Z,2.87
2018-01-21T08:57:36.593Z,2.93
2018-01-21T08:58:36.455Z,2.98
2018-01-21T09:00:40.245Z,2.97
2018-01-21T09:01:40.187Z,3.05
2018-01-21T09:02:40.072Z,3.08
2018-01-21T09:03:39.981Z,2.98
2018-01-21T09:04:39.924Z,3.10
2018-01-21T09:05:39.808Z,3.08
2018-01-21T09:06:39.724Z,3.08
2018-01-21T09:07:39.646Z,2.95
2018-01-21T09:08:39.551Z,3.03
2018-01-21T09:09:39.468Z,3.13
2018-01-21T09:10:39.378Z,3.05
2018-01-21T09:11:39.296Z,3.13
2018-01-21T09:12:39.206Z,3.18
2018-01-21T09:13:39.130Z,3.10
2018-01-21T09:14:39.043Z,3.11
2018-01-21T09:15:38.950Z,3.16
2018-01-21T09:16:38.862Z,3.18
2018-01-21T09:17:38.777Z,3.10
2018-01-21T09:18:38.693Z,3.10
2018-01-21T09:19:38.609Z,3.11
2018-01-21T09:20:38.519Z,3.07
2018-01-21T09:21:38.438Z,3.13
2018-01-21T09:22:38.349Z,3.08
2018-01-21T09:23:38.269Z,3.11
2018-01-21T09:24:38.180Z,3.08
2018-01-21T09:25:38.094Z,3.14
2018-01-21T09:26:38.010Z,3.10
2018-01-21T09:27:37.926Z,3.07
2018-01-21T09:28:37.834Z,3.04
2018-01-21T09:29:44.322Z,3.07
2018-01-21T09:30:37.663Z,3.07
2018-01-21T09:31:37.577Z,3.08
2018-01-21T09:32:37.490Z,3.16
2018-01-21T09:33:37.413Z,3.13
2018-01-21T09:34:37.323Z,3.10
2018-01-21T09:35:37.238Z,3.05
2018-01-21T09:36:37.157Z,3.14
2018-01-21T09:37:37.064Z,3.11
2018-01-21T09:38:36.977Z,3.14
2018-01-21T09:39:36.910Z,3.19
2018-01-21T09:40:36.829Z,3.04
2018-01-21T09:41:36.721Z,3.08
2018-01-21T09:42:36.635Z,3.05
2018-01-21T09:43:36.564Z,3.07
2018-01-21T09:44:36.462Z,3.04
2018-01-21T09:45:36.386Z,3.13
2018-01-21T09:46:36.294Z,3.03
2018-01-21T09:47:36.204Z,3.04
2018-01-21T09:48:36.121Z,3.07
2018-01-21T09:49:36.035Z,3.08
2018-01-21T09:50:35.950Z,3.13
2018-01-21T09:51:35.869Z,3.07
2018-01-21T09:52:35.778Z,3.08
2018-01-21T09:53:35.724Z,2.98
2018-01-21T09:54:35.605Z,2.98
2018-01-21T09:55:35.520Z,3.14
2018-01-21T09:56:35.434Z,3.14
2018-01-21T09:57:35.348Z,3.16
2018-01-21T09:58:35.261Z,3.07
2018-01-21T09:59:35.178Z,3.07
2018-01-21T10:00:35.091Z,3.11
2018-01-21T10:01:35.002Z,3.05
2018-01-21T10:02:34.919Z,3.13
2018-01-21T10:03:34.844Z,3.11
2018-01-21T10:04:34.748Z,3.11
2018-01-21T10:05:34.667Z,3.11
2018-01-21T10:06:34.577Z,3.16
2018-01-21T10:07:34.490Z,3.19
2018-01-21T10:08:34.404Z,3.05
2018-01-21T10:09:34.319Z,3.13
2018-01-21T10:10:34.247Z,3.08
2018-01-21T10:11:34.146Z,3.11
2018-01-21T10:12:34.062Z,3.13
2018-01-21T10:13:33.976Z,3.08
2018-01-21T10:14:33.900Z,3.08
2018-01-21T10:15:33.807Z,3.05
2018-01-21T10:16:33.729Z,3.10
2018-01-21T10:17:33.633Z,3.19
2018-01-21T10:18:33.546Z,3.07
2018-01-21T10:19:33.463Z,3.07
2018-01-21T10:20:33.373Z,3.19
2018-01-21T10:21:33.289Z,3.10
2018-01-21T10:22:33.206Z,3.07
2018-01-21T10:23:33.117Z,3.11
2018-01-21T10:24:33.033Z,3.13
2018-01-21T10:25:32.947Z,3.11
2018-01-21T10:26:32.867Z,3.14
2018-01-21T10:27:32.784Z,3.10
2018-01-21T10:28:32.692Z,3.08
2018-01-21T10:29:32.603Z,3.03
2018-01-21T10:30:32.518Z,3.08
2018-01-21T10:31:32.434Z,3.00
2018-01-21T10:32:32.351Z,3.05
2018-01-21T10:33:32.258Z,3.01
2018-01-21T10:34:32.182Z,3.00
2018-01-21T10:35:32.094Z,3.03
2018-01-21T10:36:32.004Z,2.95
2018-01-21T10:37:31.920Z,3.08
2018-01-21T10:38:31.834Z,3.00
2018-01-21T10:39:31.745Z,2.98
2018-01-21T10:40:31.663Z,3.04
2018-01-21T10:41:31.575Z,2.95
2018-01-21T10:42:31.489Z,2.98
2018-01-21T10:43:31.404Z,2.89
2018-01-21T10:44:31.319Z,2.97
2018-01-21T10:45:31.231Z,2.89
2018-01-21T10:46:31.147Z,2.95
2018-01-21T10:47:31.067Z,2.90
2018-01-21T10:48:30.973Z,3.01
2018-01-21T10:49:30.888Z,2.90
2018-01-21T10:50:30.801Z,2.92
2018-01-21T10:51:30.717Z,2.95
2018-01-21T10:52:30.629Z,2.90
2018-01-21T10:53:30.542Z,2.97
2018-01-21T10:54:30.457Z,2.93
2018-01-21T10:55:30.373Z,2.87
2018-01-21T10:56:30.300Z,3.07
2018-01-21T10:57:30.199Z,3.01
2018-01-21T10:58:30.118Z,2.95
2018-01-21T10:59:30.028Z,3.03
2018-01-21T11:00:29.945Z,2.95
2018-01-21T11:01:29.858Z,3.05
2018-01-21T11:02:29.770Z,3.00
2018-01-21T11:03:29.684Z,3.10
2018-01-21T11:04:29.598Z,3.03
2018-01-21T11:05:29.513Z,3.07
2018-01-21T11:06:29.425Z,3.13
2018-01-21T11:07:29.359Z,3.13
2018-01-21T11:08:29.258Z,2.98
2018-01-21T11:09:29.166Z,3.10
2018-01-21T11:10:29.081Z,3.03
2018-01-21T11:11:28.997Z,2.93
2018-01-21T11:12:28.909Z,3.11
2018-01-21T11:13:28.824Z,3.19
2018-01-21T11:14:28.741Z,3.19
2018-01-21T11:15:28.656Z,3.13
2018-01-21T11:16:28.567Z,3.07
2018-01-21T11:17:28.481Z,3.10
2018-01-21T11:18:28.403Z,3.07
2018-01-21T11:19:28.308Z,3.18
2018-01-21T11:20:28.226Z,3.00
2018-01-21T11:21:28.137Z,3.14
2018-01-21T11:22:28.051Z,3.08
2018-01-21T11:23:27.964Z,3.10
2018-01-21T11:24:27.883Z,3.19
2018-01-21T11:25:27.792Z,3.01
2018-01-21T11:26:27.711Z,3.16
2018-01-21T11:27:27.623Z,3.14
2018-01-21T11:28:27.534Z,3.04
2018-01-21T11:29:27.452Z,3.10
2018-01-21T11:30:27.366Z,3.14
2018-01-21T11:31:27.290Z,3.10
2018-01-21T11:32:27.194Z,3.10
2018-01-21T11:33:27.107Z,3.08
2018-01-21T11:34:27.023Z,3.08
2018-01-21T11:35:26.935Z,3.05
2018-01-21T11:36:26.908Z,3.10
2018-01-21T11:37:26.762Z,2.95
2018-01-21T11:38:26.680Z,3.13
2018-01-21T11:39:26.598Z,3.08
2018-01-21T11:40:26.505Z,3.10
2018-01-21T11:41:26.423Z,3.16
2018-01-21T11:42:26.334Z,3.13
2018-01-21T11:43:26.249Z,3.07
2018-01-21T11:44:26.165Z,3.08
2018-01-21T11:45:26.076Z,3.21
2018-01-21T11:46:25.995Z,3.07
2018-01-21T11:47:25.907Z,3.14
2018-01-21T11:48:25.820Z,3.22
2018-01-21T11:49:25.744Z,3.13
2018-01-21T11:50:25.651Z,3.13
2018-01-21T11:51:25.565Z,3.19
2018-01-21T11:52:25.475Z,3.21
2018-01-21T11:53:25.392Z,3.19
2018-01-21T11:54:25.304Z,3.13
2018-01-21T11:55:25.218Z,3.13
2018-01-21T11:56:25.136Z,3.16
2018-01-21T11:57:25.049Z,3.21
2018-01-21T11:58:24.962Z,3.21
2018-01-21T11:59:24.877Z,3.18
2018-01-21T12:00:24.794Z,3.18
2018-01-21T12:01:24.705Z,3.19
2018-01-21T12:02:24.620Z,3.19
2018-01-21T12:03:24.535Z,3.22
2018-01-21T12:04:24.446Z,3.13
2018-01-21T12:05:24.361Z,3.19
2018-01-21T12:06:24.279Z,3.18
2018-01-21T12:07:24.190Z,3.13
2018-01-21T12:08:24.105Z,3.16
2018-01-21T12:09:24.021Z,3.25
2018-01-21T12:10:23.939Z,3.18
2018-01-21T12:11:23.855Z,3.11
2018-01-21T12:12:23.761Z,3.16
2018-01-21T12:13:23.675Z,3.13
2018-01-21T12:14:23.592Z,3.13
2018-01-21T12:15:23.506Z,3.14
2018-01-21T12:16:23.418Z,3.26
2018-01-21T12:17:23.334Z,3.21
2018-01-21T12:18:23.263Z,3.21
2018-01-21T12:19:23.164Z,3.22
2018-01-21T12:20:23.089Z,3.21
2018-01-21T12:21:23.002Z,3.18
2018-01-21T12:22:22.905Z,3.13
2018-01-21T12:23:22.818Z,3.23
2018-01-21T12:24:22.732Z,3.21
2018-01-21T12:25:22.650Z,3.21
2018-01-21T12:26:22.566Z,3.16
2018-01-21T12:27:22.480Z,3.16
2018-01-21T12:28:22.390Z,3.18
2018-01-21T12:29:22.307Z,3.16
2018-01-21T12:30:22.221Z,3.13
2018-01-21T12:31:22.160Z,3.16
2018-01-21T12:32:22.049Z,3.14
2018-01-21T12:33:21.986Z,3.19
2018-01-21T12:34:21.879Z,3.08
2018-01-21T12:35:21.793Z,3.10
2018-01-21T12:36:21.706Z,3.19
2018-01-21T12:37:21.634Z,3.10
2018-01-21T12:38:21.538Z,3.16
2018-01-21T12:39:21.450Z,3.18
2018-01-21T12:40:21.368Z,3.18
2018-01-21T12:41:21.278Z,3.08
2018-01-21T12:42:21.193Z,3.13
2018-01-21T12:43:21.111Z,3.04
2018-01-21T12:44:21.021Z,3.10
2018-01-21T12:45:20.938Z,3.05
2018-01-21T12:46:20.852Z,3.11
2018-01-21T12:47:20.782Z,3.07
2018-01-21T12:48:20.677Z,3.10
2018-01-21T12:49:20.592Z,3.18
2018-01-21T12:50:20.506Z,3.16
2018-01-21T12:51:20.421Z,3.16
2018-01-21T12:52:20.333Z,3.16
2018-01-21T12:53:20.249Z,3.14
2018-01-21T12:54:20.164Z,3.21
2018-01-21T12:55:20.080Z,3.16
2018-01-21T12:56:19.991Z,3.13
2018-01-21T12:57:19.903Z,3.14
2018-01-21T12:58:19.819Z,3.16
2018-01-21T12:59:19.750Z,3.18
2018-01-21T13:00:19.659Z,3.18
2018-01-21T13:01:19.569Z,3.16
2018-01-21T13:02:19.478Z,3.11
2018-01-21T13:03:19.414Z,3.23
2018-01-21T13:04:19.318Z,3.19
2018-01-21T13:05:19.224Z,3.16
2018-01-21T13:06:19.149Z,3.18
2018-01-21T13:07:19.049Z,3.19
2018-01-21T13:08:18.973Z,3.16
2018-01-21T13:09:18.878Z,3.18
2018-01-21T13:10:18.791Z,3.19
2018-01-21T13:11:18.706Z,3.19
2018-01-21T13:12:18.618Z,3.23
2018-01-21T13:13:18.538Z,3.29
2018-01-21T13:14:18.449Z,3.36
2018-01-21T13:15:18.362Z,3.32
2018-01-21T13:16:18.276Z,3.23
2018-01-21T13:17:18.191Z,3.26
2018-01-21T13:18:18.107Z,3.34
2018-01-21T13:19:18.021Z,3.34
2018-01-21T13:20:17.941Z,3.29